createdAt,value
2018-11-07T00:01:02.617Z,14.55
2018-11-07T00:03:30.844Z,14.80
2018-11-07T00:05:59.095Z,16.40
2018-11-07T00:08:27.387Z,14.55
2018-11-07T00:10:55.742Z,14.13
2018-11-07T00:13:24.114Z,14.25
2018-11-07T00:15:52.411Z,16.32
2018-11-07T00:18:20.619Z,15.55
2018-11-07T00:20:48.833Z,14.85
2018-11-07T00:23:17.101Z,13.13
2018-11-07T00:25:45.318Z,13.98
2018-11-07T00:28:13.519Z,13.10
2018-11-07T00:30:41.738Z,14.75
2018-11-07T00:33:10.022Z,16.73
2018-11-07T00:35:38.250Z,11.85
2018-11-07T00:38:06.478Z,14.50
2018-11-07T00:40:34.706Z,13.28
2018-11-07T00:43:02.950Z,13.65
2018-11-07T00:45:31.206Z,14.60
2018-11-07T00:47:59.431Z,15.13
2018-11-07T00:50:27.855Z,12.25
2018-11-07T00:52:56.086Z,13.65
2018-11-07T00:55:24.325Z,16.23
2018-11-07T00:57:52.548Z,15.90
2018-11-07T01:00:20.975Z,12.63
2018-11-07T01:02:55.907Z,12.15
2018-11-07T01:05:24.170Z,13.65
2018-11-07T01:07:52.410Z,13.53
2018-11-07T01:10:21.849Z,11.08
2018-11-07T01:12:50.092Z,11.45
2018-11-07T01:15:18.361Z,12.70
2018-11-07T01:17:46.676Z,11.68
2018-11-07T01:20:15.297Z,12.07
2018-11-07T01:22:44.092Z,11.88
2018-11-07T01:25:12.302Z,11.33
2018-11-07T01:27:40.525Z,10.85
2018-11-07T01:30:10.743Z,12.37
2018-11-07T01:32:39.110Z,11.20
2018-11-07T01:35:07.567Z,13.20
2018-11-07T01:37:35.834Z,10.05
2018-11-07T01:40:05.900Z,10.38
2018-11-07T01:42:34.160Z,10.58
2018-11-07T01:45:02.401Z,10.48
2018-11-07T01:47:30.606Z,9.00
2018-11-07T01:49:58.897Z,11.20
2018-11-07T01:52:27.186Z,12.35
2018-11-07T01:54:55.396Z,8.88
2018-11-07T01:57:23.611Z,9.10
2018-11-07T01:59:51.813Z,11.22
2018-11-07T02:02:20.073Z,8.85
2018-11-07T02:04:48.329Z,9.70
2018-11-07T02:07:16.533Z,9.63
2018-11-07T02:09:44.798Z,9.75
2018-11-07T02:12:12.990Z,8.68
2018-11-07T02:14:41.197Z,8.45
2018-11-07T02:17:09.414Z,7.33
2018-11-07T02:19:37.641Z,9.45
2018-11-07T02:22:06.005Z,8.80
2018-11-07T02:24:34.249Z,8.15
2018-11-07T02:27:02.507Z,10.25
2018-11-07T02:29:30.751Z,8.38
2018-11-07T02:31:58.987Z,8.18
2018-11-07T02:34:27.217Z,12.33
2018-11-07T02:36:55.452Z,8.50
2018-11-07T02:39:23.718Z,7.72
2018-11-07T02:41:52.056Z,7.58
2018-11-07T02:44:20.223Z,8.28
2018-11-07T02:46:48.430Z,8.05
2018-11-07T02:49:16.640Z,7.72
2018-11-07T02:51:44.905Z,7.42
2018-11-07T02:54:13.232Z,7.33
2018-11-07T02:56:41.448Z,7.10
2018-11-07T02:59:09.650Z,6.90
2018-11-07T03:01:37.944Z,7.90
2018-11-07T03:04:06.205Z,6.60
2018-11-07T03:06:34.422Z,8.03
2018-11-07T03:09:02.638Z,8.03
2018-11-07T03:11:30.925Z,6.05
2018-11-07T03:13:59.406Z,6.15
2018-11-07T03:16:27.666Z,6.62
2018-11-07T03:18:55.857Z,8.30
2018-11-07T03:21:24.085Z,6.33
2018-11-07T03:23:52.348Z,5.60
2018-11-07T03:26:20.602Z,6.20
2018-11-07T03:28:48.833Z,4.65
2018-11-07T03:31:17.081Z,5.33
2018-11-07T03:33:45.404Z,4.58
2018-11-07T03:36:13.755Z,6.58
2018-11-07T03:38:41.992Z,5.00
2018-11-07T03:41:10.217Z,6.00
2018-11-07T03:43:38.494Z,4.00
2018-11-07T03:46:06.774Z,4.83
2018-11-07T03:48:35.023Z,3.90
2018-11-07T03:51:03.290Z,3.95
2018-11-07T03:53:31.506Z,4.15
2018-11-07T03:55:59.793Z,3.45
2018-11-07T03:58:28.075Z,3.33
2018-11-07T04:00:56.345Z,4.00
2018-11-07T04:03:24.666Z,6.97
2018-11-07T04:05:52.877Z,3.50
2018-11-07T04:08:21.125Z,3.30
2018-11-07T04:10:49.391Z,3.75
2018-11-07T04:13:17.686Z,3.45
2018-11-07T04:15:45.961Z,3.72
2018-11-07T04:18:14.178Z,3.85
2018-11-07T04:20:42.451Z,4.90
2018-11-07T04:23:10.662Z,3.60
2018-11-07T04:25:38.866Z,4.05
2018-11-07T04:28:07.170Z,3.40
2018-11-07T04:30:35.442Z,3.92
2018-11-07T04:33:03.632Z,3.20
2018-11-07T04:35:31.910Z,3.47
2018-11-07T04:38:00.205Z,3.85
2018-11-07T04:40:28.425Z,4.47
2018-11-07T04:42:56.628Z,4.95
2018-11-07T04:45:24.861Z,3.12
2018-11-07T04:47:53.133Z,3.45
2018-11-07T04:50:21.357Z,4.25
2018-11-07T04:52:49.633Z,3.02
2018-11-07T04:55:17.839Z,3.20
2018-11-07T04:57:46.051Z,6.00
2018-11-07T05:00:14.404Z,3.60
2018-11-07T05:02:43.026Z,3.10
2018-11-07T05:05:11.533Z,3.27
2018-11-07T05:07:39.856Z,3.58
2018-11-07T05:10:08.997Z,3.27
2018-11-07T05:12:37.265Z,3.25
2018-11-07T05:15:06.349Z,3.70
2018-11-07T05:17:34.672Z,3.70
2018-11-07T05:20:02.910Z,4.05
2018-11-07T05:22:31.127Z,3.65
2018-11-07T05:24:59.370Z,5.50
2018-11-07T05:27:27.667Z,5.15
2018-11-07T05:29:55.923Z,3.60
2018-11-07T05:32:24.349Z,5.50
2018-11-07T05:34:52.570Z,4.72
2018-11-07T05:37:20.906Z,5.58
2018-11-07T05:39:49.111Z,3.85
2018-11-07T05:42:17.354Z,4.10
2018-11-07T05:44:45.558Z,5.50
2018-11-07T05:47:13.750Z,4.20
2018-11-07T05:49:42.030Z,3.30
2018-11-07T05:52:10.291Z,4.25
2018-11-07T05:54:38.573Z,3.75
2018-11-07T05:57:06.972Z,3.52
2018-11-07T05:59:35.174Z,3.80
2018-11-07T06:02:03.441Z,4.15
2018-11-07T06:04:31.682Z,5.65
2018-11-07T06:06:59.945Z,2.95
2018-11-07T06:09:28.174Z,7.90
2018-11-07T06:11:56.423Z,3.30
2018-11-07T06:14:24.665Z,4.92
2018-11-07T06:16:52.956Z,3.92
2018-11-07T06:19:21.231Z,3.98
2018-11-07T06:21:49.451Z,4.50
2018-11-07T06:24:17.682Z,4.00
2018-11-07T06:26:45.929Z,5.47
2018-11-07T06:29:14.170Z,3.27
2018-11-07T06:31:42.430Z,8.15
2018-11-07T06:34:10.693Z,4.05
2018-11-07T06:36:39.086Z,3.98
2018-11-07T06:39:08.692Z,4.17
2018-11-07T06:41:36.941Z,4.30
2018-11-07T06:44:05.406Z,4.15
2018-11-07T06:46:33.642Z,4.37
2018-11-07T06:49:01.913Z,4.20
2018-11-07T06:51:30.158Z,3.50
2018-11-07T06:53:58.685Z,4.08
2018-11-07T06:56:27.378Z,3.95
2018-11-07T06:58:55.814Z,5.55
2018-11-07T07:01:24.113Z,6.62
2018-11-07T07:03:52.358Z,4.47
2018-11-07T07:06:20.855Z,4.87
2018-11-07T07:08:49.105Z,5.45
2018-11-07T07:11:17.427Z,3.87
2018-11-07T07:13:45.634Z,4.55
2018-11-07T07:16:13.949Z,4.25
2018-11-07T07:18:42.238Z,3.87
2018-11-07T07:21:10.464Z,3.80
2018-11-07T07:23:38.727Z,3.75
2018-11-07T07:26:07.015Z,3.30
2018-11-07T07:28:35.254Z,5.67
2018-11-07T07:31:03.509Z,4.15
2018-11-07T07:33:31.732Z,3.30
2018-11-07T07:35:59.942Z,5.62
2018-11-07T07:38:28.275Z,6.87
2018-11-07T07:40:56.643Z,8.35
2018-11-07T07:43:24.854Z,5.25
2018-11-07T07:45:53.072Z,4.95
2018-11-07T07:48:21.446Z,5.10
2018-11-07T07:50:49.674Z,5.22
2018-11-07T07:53:20.044Z,4.20
2018-11-07T07:55:48.212Z,5.97
2018-11-07T07:58:16.502Z,6.10
2018-11-07T08:00:44.761Z,5.35
2018-11-07T08:03:13.000Z,4.78
2018-11-07T08:05:41.233Z,4.12
2018-11-07T08:08:09.503Z,4.67
2018-11-07T08:10:37.949Z,4.12
2018-11-07T08:13:05.990Z,3.60
2018-11-07T08:15:34.418Z,3.50
2018-11-07T08:18:02.794Z,4.70
2018-11-07T08:20:31.006Z,6.83
2018-11-07T08:22:59.258Z,6.55
2018-11-07T08:25:27.581Z,3.90
2018-11-07T08:27:55.806Z,4.80
2018-11-07T08:30:24.082Z,3.50
2018-11-07T08:32:52.358Z,4.00
2018-11-07T08:35:20.654Z,4.10
2018-11-07T08:37:48.866Z,5.25
2018-11-07T08:40:19.408Z,3.77
2018-11-07T08:42:48.151Z,3.62
2018-11-07T08:45:16.404Z,4.20
2018-11-07T08:47:45.366Z,5.28
2018-11-07T08:50:16.901Z,4.28
2018-11-07T08:52:45.929Z,4.30
2018-11-07T08:55:16.464Z,3.95
2018-11-07T08:57:44.686Z,5.03
2018-11-07T09:00:14.731Z,5.30
2018-11-07T09:02:43.662Z,8.05
2018-11-07T09:05:12.478Z,4.42
2018-11-07T09:07:41.261Z,3.70
2018-11-07T09:10:11.270Z,3.30
2018-11-07T09:12:39.594Z,3.35
2018-11-07T09:15:10.249Z,3.50
2018-11-07T09:17:38.602Z,4.37
2018-11-07T09:20:08.583Z,3.37
2018-11-07T09:22:36.813Z,3.90
2018-11-07T09:25:05.606Z,3.25
2018-11-07T09:27:33.933Z,3.45
2018-11-07T09:30:02.079Z,4.58
2018-11-07T09:32:30.323Z,3.50
2018-11-07T09:34:58.610Z,3.02
2018-11-07T09:37:26.847Z,3.90
2018-11-07T09:39:57.534Z,3.20
2018-11-07T09:42:25.806Z,3.85
2018-11-07T09:44:55.699Z,2.70
2018-11-07T09:47:25.000Z,2.58
2018-11-07T09:49:53.359Z,2.47
2018-11-07T09:52:21.602Z,2.95
2018-11-07T09:54:49.925Z,2.50
2018-11-07T09:57:18.144Z,3.02
2018-11-07T09:59:48.180Z,2.12
2018-11-07T10:02:17.473Z,1.90
2018-11-07T10:04:46.734Z,3.05
2018-11-07T10:07:15.006Z,1.92
2018-11-07T10:09:43.246Z,3.72
2018-11-07T10:12:11.553Z,3.15
2018-11-07T10:14:39.867Z,2.80
2018-11-07T10:17:08.202Z,2.33
2018-11-07T10:19:36.487Z,2.10
2018-11-07T10:22:07.104Z,3.47
2018-11-07T10:24:35.845Z,2.62
2018-11-07T10:27:04.256Z,2.35
2018-11-07T10:29:32.593Z,2.80
2018-11-07T10:32:00.705Z,4.12
2018-11-07T10:34:29.133Z,3.30
2018-11-07T10:36:57.343Z,2.65
2018-11-07T10:39:25.587Z,2.35
2018-11-07T10:41:53.841Z,2.27
2018-11-07T10:44:22.093Z,2.20
2018-11-07T10:46:50.329Z,2.40
2018-11-07T10:49:18.701Z,2.37
2018-11-07T10:51:46.994Z,3.20
2018-11-07T10:54:15.170Z,5.58
2018-11-07T10:56:43.443Z,2.40
2018-11-07T10:59:11.688Z,2.10
2018-11-07T11:01:45.458Z,2.47
2018-11-07T11:04:14.361Z,2.50
2018-11-07T11:06:42.657Z,3.70
2018-11-07T11:09:10.854Z,3.15
2018-11-07T11:11:39.148Z,3.45
2018-11-07T11:14:07.482Z,2.37
2018-11-07T11:16:35.778Z,2.92
2018-11-07T11:19:04.003Z,3.22
2018-11-07T11:21:32.249Z,4.30
2018-11-07T11:24:00.501Z,2.65
2018-11-07T11:26:28.713Z,2.58
2018-11-07T11:28:56.939Z,2.20
2018-11-07T11:31:25.299Z,2.90
2018-11-07T11:33:53.704Z,2.52
2018-11-07T11:36:21.885Z,2.92
2018-11-07T11:38:50.088Z,2.83
2018-11-07T11:41:18.432Z,2.75
2018-11-07T11:43:46.608Z,3.30
2018-11-07T11:46:14.882Z,4.62
2018-11-07T11:48:43.191Z,3.45
2018-11-07T11:51:11.512Z,1.80
2018-11-07T11:53:40.050Z,3.58
2018-11-07T11:56:08.294Z,2.58
2018-11-07T11:58:36.712Z,5.12
2018-11-07T12:01:05.570Z,2.12
2018-11-07T12:03:33.809Z,2.40
2018-11-07T12:06:02.240Z,2.27
2018-11-07T12:08:30.665Z,2.00
2018-11-07T12:10:58.877Z,2.35
2018-11-07T12:13:27.599Z,2.40
2018-11-07T12:15:55.802Z,2.02
2018-11-07T12:18:24.068Z,3.70
2018-11-07T12:20:52.343Z,3.50
2018-11-07T12:23:20.667Z,3.45
2018-11-07T12:25:48.953Z,2.10
2018-11-07T12:28:17.434Z,1.90
2018-11-07T12:30:45.862Z,3.60
2018-11-07T12:33:14.130Z,2.60
2018-11-07T12:35:42.401Z,2.22
2018-11-07T12:38:10.683Z,6.95
2018-11-07T12:40:38.973Z,3.95
2018-11-07T12:43:07.564Z,3.30
2018-11-07T12:45:35.878Z,5.10
2018-11-07T12:48:04.176Z,2.30
2018-11-07T12:50:32.552Z,3.92
2018-11-07T12:53:00.737Z,3.17
2018-11-07T12:55:28.978Z,2.72
2018-11-07T12:57:57.345Z,3.90
2018-11-07T13:00:26.914Z,5.12
2018-11-07T13:02:55.238Z,3.77
2018-11-07T13:05:24.318Z,2.77
2018-11-07T13:07:53.363Z,3.15
2018-11-07T13:10:22.390Z,5.42
2018-11-07T13:12:51.407Z,5.70
2018-11-07T13:15:19.669Z,3.27
2018-11-07T13:17:48.790Z,3.45
2018-11-07T13:20:18.848Z,3.10
2018-11-07T13:22:48.479Z,6.72
2018-11-07T13:25:17.303Z,3.15
2018-11-07T13:27:45.524Z,4.03
2018-11-07T13:30:15.007Z,3.42
2018-11-07T13:32:43.297Z,6.12
2018-11-07T13:35:12.367Z,9.18
2018-11-07T13:37:41.561Z,3.72
2018-11-07T13:40:12.293Z,4.95
2018-11-07T13:42:40.587Z,5.37
2018-11-07T13:45:10.963Z,5.30
2018-11-07T13:47:39.895Z,4.25
2018-11-07T13:50:08.305Z,4.20
2018-11-07T13:52:36.581Z,4.47
2018-11-07T13:55:05.969Z,6.15
2018-11-07T13:57:34.242Z,5.62
2018-11-07T14:00:03.026Z,6.87
2018-11-07T14:02:31.334Z,4.30
2018-11-07T14:04:59.565Z,4.00
2018-11-07T14:07:27.853Z,5.55
2018-11-07T14:09:56.054Z,3.98
2018-11-07T14:12:24.349Z,4.50
2018-11-07T14:14:52.668Z,4.87
2018-11-07T14:17:21.236Z,5.95
2018-11-07T14:19:49.560Z,3.83
2018-11-07T14:22:17.806Z,4.42
2018-11-07T14:24:46.070Z,5.35
2018-11-07T14:27:14.379Z,4.00
2018-11-07T14:29:42.683Z,5.58
2018-11-07T14:32:10.928Z,3.92
2018-11-07T14:34:39.206Z,4.53
2018-11-07T14:37:07.474Z,4.28
2018-11-07T14:39:35.690Z,4.53
2018-11-07T14:42:04.126Z,4.53
2018-11-07T14:44:32.330Z,5.22
2018-11-07T14:47:00.751Z,4.85
2018-11-07T14:49:29.050Z,2.65
2018-11-07T14:51:57.312Z,3.77
2018-11-07T14:54:25.724Z,3.30
2018-11-07T14:56:53.872Z,3.55
2018-11-07T14:59:22.142Z,4.30
2018-11-07T15:01:50.390Z,4.83
2018-11-07T15:04:18.642Z,4.35
2018-11-07T15:06:46.891Z,5.72
2018-11-07T15:09:15.171Z,9.40
2018-11-07T15:11:43.436Z,5.67
2018-11-07T15:14:11.634Z,4.95
2018-11-07T15:16:40.093Z,4.42
2018-11-07T15:19:08.355Z,4.47
2018-11-07T15:21:36.598Z,4.30
2018-11-07T15:24:05.002Z,4.70
2018-11-07T15:26:33.415Z,6.55
2018-11-07T15:29:01.707Z,6.08
2018-11-07T15:31:29.906Z,4.03
2018-11-07T15:33:58.130Z,4.62
2018-11-07T15:36:26.413Z,4.35
2018-11-07T15:38:54.696Z,4.95
2018-11-07T15:41:22.974Z,5.30
2018-11-07T15:43:51.182Z,3.62
2018-11-07T15:46:19.604Z,5.05
2018-11-07T15:48:47.838Z,4.65
2018-11-07T15:51:20.326Z,5.30
2018-11-07T15:53:48.557Z,5.50
2018-11-07T15:56:16.858Z,4.70
2018-11-07T15:58:45.186Z,4.35
2018-11-07T16:01:13.448Z,5.45
2018-11-07T16:03:47.116Z,9.23
2018-11-07T16:06:15.553Z,5.30
2018-11-07T16:08:43.958Z,4.55
2018-11-07T16:11:12.251Z,4.22
2018-11-07T16:13:40.805Z,4.47
2018-11-07T16:16:09.174Z,4.37
2018-11-07T16:18:37.669Z,4.42
2018-11-07T16:21:05.953Z,4.97
2018-11-07T16:23:34.227Z,5.50
2018-11-07T16:26:02.495Z,4.30
2018-11-07T16:28:30.887Z,4.60
2018-11-07T16:30:59.124Z,4.22
2018-11-07T16:33:27.480Z,6.08
2018-11-07T16:35:55.759Z,5.00
2018-11-07T16:38:24.110Z,4.35
2018-11-07T16:40:52.472Z,4.00
2018-11-07T16:43:20.679Z,4.50
2018-11-07T16:45:48.882Z,4.80
2018-11-07T16:48:17.226Z,4.37
2018-11-07T16:50:45.456Z,4.92
2018-11-07T16:53:13.763Z,4.67
2018-11-07T16:55:42.085Z,6.42
2018-11-07T16:58:10.290Z,4.90
2018-11-07T17:00:38.515Z,4.75
2018-11-07T17:03:06.739Z,5.12
2018-11-07T17:05:34.994Z,4.60
2018-11-07T17:08:03.318Z,4.70
2018-11-07T17:10:31.616Z,4.80
2018-11-07T17:13:00.014Z,5.35
2018-11-07T17:15:28.227Z,4.55
2018-11-07T17:17:56.469Z,5.10
2018-11-07T17:20:26.190Z,5.35
2018-11-07T17:22:54.654Z,5.05
2018-11-07T17:25:22.878Z,4.80
2018-11-07T17:27:51.138Z,5.50
2018-11-07T17:30:19.620Z,7.85
2018-11-07T17:32:47.864Z,4.95
2018-11-07T17:35:17.346Z,5.00
2018-11-07T17:37:45.937Z,5.55
2018-11-07T17:40:16.781Z,6.08
2018-11-07T17:42:45.402Z,5.10
2018-11-07T17:45:15.381Z,5.53
2018-11-07T17:47:43.972Z,6.28
2018-11-07T17:50:13.505Z,4.90
2018-11-07T17:52:41.854Z,5.92
2018-11-07T17:55:11.303Z,6.20
2018-11-07T17:57:39.562Z,6.30
2018-11-07T18:00:09.848Z,5.50
2018-11-07T18:02:38.242Z,6.87
2018-11-07T18:05:06.858Z,4.55
2018-11-07T18:07:35.586Z,5.55
2018-11-07T18:10:04.214Z,5.95
2018-11-07T18:12:32.558Z,5.97
2018-11-07T18:15:00.814Z,5.70
2018-11-07T18:17:29.115Z,5.70
2018-11-07T18:19:57.373Z,5.20
2018-11-07T18:22:25.746Z,5.00
2018-11-07T18:24:53.973Z,7.42
2018-11-07T18:27:22.319Z,6.40
2018-11-07T18:29:50.605Z,5.22
2018-11-07T18:32:18.925Z,5.28
2018-11-07T18:34:47.101Z,6.75
2018-11-07T18:37:15.350Z,6.00
2018-11-07T18:39:43.630Z,6.15
2018-11-07T18:42:11.869Z,5.75
2018-11-07T18:44:40.229Z,5.03
2018-11-07T18:47:08.481Z,6.58
2018-11-07T18:49:36.722Z,4.80
2018-11-07T18:52:05.031Z,5.03
2018-11-07T18:54:33.591Z,5.75
2018-11-07T18:57:01.903Z,6.03
2018-11-07T18:59:30.131Z,4.53
2018-11-07T19:01:58.391Z,7.53
2018-11-07T19:04:26.762Z,4.55
2018-11-07T19:06:55.007Z,5.60
2018-11-07T19:09:23.222Z,5.78
2018-11-07T19:11:51.448Z,9.35
2018-11-07T19:14:19.678Z,7.15
2018-11-07T19:16:48.053Z,4.75
2018-11-07T19:19:16.293Z,6.35
2018-11-07T19:21:44.566Z,6.60
2018-11-07T19:24:12.902Z,5.85
2018-11-07T19:26:41.216Z,6.30
2018-11-07T19:29:09.514Z,5.45
2018-11-07T19:31:37.795Z,4.70
2018-11-07T19:34:06.080Z,4.95
2018-11-07T19:36:34.299Z,6.17
2018-11-07T19:39:02.525Z,6.83
2018-11-07T19:41:30.736Z,6.05
2018-11-07T19:43:58.980Z,6.60
2018-11-07T19:46:27.176Z,5.87
2018-11-07T19:48:55.425Z,9.35
2018-11-07T19:51:23.681Z,6.87
2018-11-07T19:53:52.068Z,5.90
2018-11-07T19:56:20.302Z,6.15
2018-11-07T19:58:48.598Z,13.72
2018-11-07T20:01:16.901Z,5.67
2018-11-07T20:03:45.194Z,6.55
2018-11-07T20:06:13.481Z,9.08
2018-11-07T20:08:41.758Z,6.45
2018-11-07T20:11:10.010Z,5.35
2018-11-07T20:13:38.266Z,6.03
2018-11-07T20:16:06.519Z,5.92
2018-11-07T20:18:34.743Z,7.50
2018-11-07T20:21:03.038Z,6.60
2018-11-07T20:23:31.262Z,6.55
2018-11-07T20:25:59.561Z,6.65
2018-11-07T20:28:27.850Z,5.80
2018-11-07T20:30:56.242Z,6.45
2018-11-07T20:33:24.584Z,6.55
2018-11-07T20:35:53.321Z,6.10
2018-11-07T20:38:21.534Z,7.25
2018-11-07T20:40:49.854Z,8.10
2018-11-07T20:43:18.151Z,6.90
2018-11-07T20:45:46.457Z,9.63
2018-11-07T20:48:15.113Z,12.18
2018-11-07T20:50:43.338Z,6.65
2018-11-07T20:53:11.555Z,7.28
2018-11-07T20:55:39.822Z,7.25
2018-11-07T20:58:08.074Z,8.80
2018-11-07T21:00:36.321Z,6.58
2018-11-07T21:03:04.590Z,6.17
2018-11-07T21:05:32.922Z,8.13
2018-11-07T21:08:01.209Z,6.75
2018-11-07T21:10:29.450Z,6.03
2018-11-07T21:12:57.721Z,6.60
2018-11-07T21:15:25.981Z,6.60
2018-11-07T21:17:54.310Z,11.63
2018-11-07T21:20:22.539Z,6.85
2018-11-07T21:22:50.843Z,6.53
2018-11-07T21:25:19.082Z,7.35
2018-11-07T21:27:47.396Z,6.25
2018-11-07T21:30:15.830Z,6.42
2018-11-07T21:32:44.406Z,7.40
2018-11-07T21:35:12.782Z,7.85
2018-11-07T21:37:41.273Z,6.60
2018-11-07T21:40:10.998Z,7.60
2018-11-07T21:42:39.601Z,7.00
2018-11-07T21:45:09.395Z,7.85
2018-11-07T21:47:38.010Z,6.95
2018-11-07T21:50:07.511Z,9.33
2018-11-07T21:52:35.817Z,9.48
2018-11-07T21:55:04.401Z,7.08
2018-11-07T21:57:32.732Z,7.00
2018-11-07T22:00:00.980Z,8.43
2018-11-07T22:02:29.305Z,8.10
2018-11-07T22:04:57.533Z,6.87
2018-11-07T22:07:25.985Z,6.78
2018-11-07T22:09:54.395Z,7.80
2018-11-07T22:12:22.697Z,6.80
2018-11-07T22:14:50.981Z,6.72
2018-11-07T22:17:19.360Z,7.83
2018-11-07T22:19:47.586Z,7.10
2018-11-07T22:22:15.844Z,8.78
2018-11-07T22:24:44.098Z,6.70
2018-11-07T22:27:12.346Z,8.25
2018-11-07T22:29:40.598Z,7.40
2018-11-07T22:32:08.826Z,11.93
2018-11-07T22:34:37.097Z,8.95
2018-11-07T22:37:05.613Z,12.50
2018-11-07T22:39:33.892Z,9.08
2018-11-07T22:42:02.160Z,7.60
2018-11-07T22:44:30.506Z,6.67
2018-11-07T22:46:58.757Z,7.03
2018-11-07T22:49:27.046Z,7.05
2018-11-07T22:51:55.282Z,10.88
2018-11-07T22:54:23.578Z,7.62
2018-11-07T22:56:51.931Z,10.90
2018-11-07T22:59:20.192Z,6.85
2018-11-07T23:01:48.498Z,6.95
2018-11-07T23:04:16.718Z,9.90
2018-11-07T23:06:45.166Z,8.65
2018-11-07T23:09:14.804Z,7.37
2018-11-07T23:11:44.103Z,7.90
2018-11-07T23:14:13.475Z,7.87
2018-11-07T23:16:43.140Z,12.53
2018-11-07T23:19:12.072Z,12.68
2018-11-07T23:21:40.254Z,6.97
2018-11-07T23:24:08.818Z,8.15
2018-11-07T23:26:37.093Z,7.35
2018-11-07T23:29:05.360Z,8.65
2018-11-07T23:31:33.594Z,8.23
2018-11-07T23:34:02.109Z,7.22
2018-11-07T23:36:30.420Z,7.42
2018-11-07T23:38:58.656Z,9.98
2018-11-07T23:41:26.911Z,10.15
2018-11-07T23:43:55.177Z,7.42
2018-11-07T23:46:23.492Z,7.15
2018-11-07T23:48:51.740Z,9.20
2018-11-07T23:51:19.963Z,9.58
2018-11-07T23:53:48.183Z,7.00
2018-11-07T23:56:16.433Z,7.22
2018-11-07T23:58:44.674Z,9.05
